createdAt,value
2022-10-26T00:03:50.418Z,96.28
2022-10-26T00:09:22.410Z,96.15
2022-10-26T00:14:53.834Z,96.82
2022-10-26T00:20:25.575Z,96.68
2022-10-26T00:25:57.758Z,96.48
2022-10-26T00:31:29.172Z,95.76
2022-10-26T00:37:05.144Z,95.49
2022-10-26T00:42:36.903Z,95.7
2022-10-26T00:48:08.696Z,95.15
2022-10-26T00:53:40.398Z,96.38
2022-10-26T00:59:11.982Z,96.38
2022-10-26T01:04:43.627Z,96.91
2022-10-26T01:10:15.320Z,96.08
2022-10-26T01:15:47.053Z,96.65
2022-10-26T01:21:19.268Z,98.59
2022-10-26T01:32:22.274Z,98.19
2022-10-26T01:37:58.410Z,97.69
2022-10-26T01:43:30.104Z,98.13
2022-10-26T01:49:01.814Z,98.21
2022-10-26T01:54:33.599Z,99.38
2022-10-26T02:00:05.291Z,99.4
2022-10-26T02:05:36.923Z,100.0
2022-10-26T02:11:08.726Z,100.0
2022-10-26T02:16:40.426Z,100.0
2022-10-26T02:22:12.131Z,100.0
2022-10-26T02:27:44.042Z,100.0
2022-10-26T02:33:15.619Z,100.0
2022-10-26T02:38:51.757Z,100.0
2022-10-26T02:44:23.562Z,100.0
2022-10-26T02:49:55.141Z,100.0
2022-10-26T02:55:26.746Z,100.0
2022-10-26T03:00:58.661Z,100.0
2022-10-26T03:06:30.277Z,100.0
2022-10-26T03:12:02.133Z,100.0
2022-10-26T03:17:33.846Z,100.0
2022-10-26T03:23:05.546Z,100.0
2022-10-26T03:28:37.253Z,100.0
2022-10-26T03:34:09.049Z,100.0
2022-10-26T03:39:45.143Z,100.0
2022-10-26T03:45:16.837Z,100.0
2022-10-26T03:50:48.604Z,100.0
2022-10-26T03:56:20.431Z,100.0
2022-10-26T04:01:57.629Z,100.0
2022-10-26T04:07:23.839Z,100.0
2022-10-26T04:12:56.259Z,100.0
2022-10-26T04:18:27.209Z,100.0
2022-10-26T04:23:59.104Z,100.0
2022-10-26T04:29:30.763Z,100.0
2022-10-26T04:35:02.466Z,100.0
2022-10-26T04:40:38.647Z,100.0
2022-10-26T04:46:16.524Z,100.0
2022-10-26T04:51:42.074Z,100.0
2022-10-26T04:57:13.762Z,100.0
2022-10-26T05:02:45.867Z,100.0
2022-10-26T05:08:17.226Z,100.0
2022-10-26T05:13:48.987Z,100.0
2022-10-26T05:19:20.786Z,100.0
2022-10-26T05:24:52.438Z,100.0
2022-10-26T05:30:24.055Z,100.0
2022-10-26T05:35:55.739Z,100.0
2022-10-26T05:41:31.978Z,100.0
2022-10-26T05:47:03.634Z,100.0
2022-10-26T05:52:35.399Z,100.0
2022-10-26T05:58:07.178Z,99.59
2022-10-26T06:03:38.944Z,100.0
2022-10-26T06:09:10.592Z,100.0
2022-10-26T06:14:42.321Z,99.75
2022-10-26T06:25:45.742Z,100.0
2022-10-26T06:31:17.734Z,100.0
2022-10-26T06:36:49.335Z,100.0
2022-10-26T06:42:25.302Z,100.0
2022-10-26T06:47:57.078Z,100.0
2022-10-26T06:53:28.891Z,100.0
2022-10-26T06:59:06.313Z,100.0
2022-10-26T07:04:32.386Z,100.0
2022-10-26T07:10:03.923Z,100.0
2022-10-26T07:15:35.662Z,99.97
2022-10-26T07:21:07.482Z,100.0
2022-10-26T07:26:39.351Z,100.0
2022-10-26T07:32:11.121Z,99.44
2022-10-26T07:37:42.518Z,99.08
2022-10-26T07:43:18.638Z,99.78
2022-10-26T07:48:50.423Z,98.73
2022-10-26T07:54:22.332Z,98.84
2022-10-26T07:59:54.006Z,100.0
2022-10-26T08:05:25.787Z,100.0
2022-10-26T08:10:58.638Z,99.33
2022-10-26T08:16:29.171Z,99.61
2022-10-26T08:22:00.832Z,100.0
2022-10-26T08:27:32.665Z,98.88
2022-10-26T08:33:04.221Z,98.06
2022-10-26T08:38:36.179Z,98.36
2022-10-26T08:44:12.018Z,98.88
2022-10-26T08:49:43.873Z,98.27
2022-10-26T08:55:15.362Z,97.35
2022-10-26T09:00:47.188Z,97.91
2022-10-26T09:06:18.766Z,97.13
2022-10-26T09:11:50.563Z,96.99
2022-10-26T09:17:22.222Z,97.32
2022-10-26T09:22:54.171Z,97.09
2022-10-26T09:28:25.856Z,94.7
2022-10-26T09:33:57.426Z,94.87
2022-10-26T09:39:29.122Z,93.59
2022-10-26T09:45:05.278Z,92.71
2022-10-26T09:50:37.076Z,91.87
2022-10-26T09:56:08.862Z,93.3
2022-10-26T10:01:42.701Z,91.63
2022-10-26T10:07:12.246Z,94.12
2022-10-26T10:12:43.959Z,92.58
2022-10-26T10:18:15.722Z,92.5
2022-10-26T10:23:47.314Z,93.24
2022-10-26T10:29:19.066Z,94.25
2022-10-26T10:34:51.060Z,93.67
2022-10-26T10:40:22.544Z,93.79
2022-10-26T10:46:00.112Z,94.72
2022-10-26T10:51:30.438Z,91.24
2022-10-26T10:57:02.080Z,92.12
2022-10-26T11:02:33.853Z,92.93
2022-10-26T11:08:05.538Z,90.17
2022-10-26T11:13:37.269Z,88.95
2022-10-26T11:19:08.850Z,88.71
2022-10-26T11:24:40.665Z,86.99
2022-10-26T11:30:12.420Z,88.93
2022-10-26T11:35:44.178Z,87.21
2022-10-26T11:41:15.863Z,84.96
2022-10-26T11:46:52.004Z,84.91
2022-10-26T11:52:23.745Z,84.53
2022-10-26T11:57:55.509Z,84.96
2022-10-26T12:03:27.248Z,84.17
2022-10-26T12:08:58.869Z,84.11
2022-10-26T12:14:30.540Z,85.77
2022-10-26T12:20:02.390Z,86.41
2022-10-26T12:25:34.174Z,85.66
2022-10-26T12:31:05.765Z,87.66
2022-10-26T12:36:37.489Z,84.87
2022-10-26T12:42:09.154Z,85.88
2022-10-26T12:47:45.455Z,85.32
2022-10-26T12:53:17.034Z,85.89
2022-10-26T12:58:48.807Z,86.34
2022-10-26T13:04:20.526Z,84.36
2022-10-26T13:09:52.167Z,86.04
2022-10-26T13:15:23.919Z,84.83
2022-10-26T13:20:55.678Z,84.2
2022-10-26T13:26:27.454Z,83.79
2022-10-26T13:31:59.051Z,83.45
2022-10-26T13:37:30.819Z,83.03
2022-10-26T13:43:02.575Z,83.97
2022-10-26T13:48:40.633Z,82.81
2022-10-26T13:54:12.340Z,86.89
2022-10-26T13:59:44.206Z,86.18
2022-10-26T14:05:15.855Z,86.19
2022-10-26T14:10:47.664Z,84.14
2022-10-26T14:16:19.275Z,85.21
2022-10-26T14:21:50.966Z,85.66
2022-10-26T14:27:22.738Z,88.94
2022-10-26T14:32:54.757Z,87.29
2022-10-26T14:38:26.177Z,85.48
2022-10-26T14:43:57.959Z,85.33
2022-10-26T14:49:34.016Z,85.33
2022-10-26T14:55:05.736Z,85.7
2022-10-26T15:00:37.570Z,84.48
2022-10-26T15:06:09.123Z,83.47
2022-10-26T15:11:40.847Z,83.81
2022-10-26T15:17:12.567Z,84.7
2022-10-26T15:22:44.539Z,85.91
2022-10-26T15:28:16.091Z,87.44
2022-10-26T15:33:47.702Z,88.4
2022-10-26T15:39:19.745Z,88.61
2022-10-26T15:44:51.249Z,89.17
2022-10-26T15:50:27.348Z,88.74
2022-10-26T15:55:59.165Z,88.87
2022-10-26T16:01:30.990Z,89.14
2022-10-26T16:07:02.537Z,89.47
2022-10-26T16:12:34.277Z,88.92
2022-10-26T16:18:06.191Z,88.87
2022-10-26T16:23:37.702Z,89.21
2022-10-26T16:29:09.516Z,89.55
2022-10-26T16:34:42.806Z,89.7
2022-10-26T16:40:12.859Z,90.17
2022-10-26T16:45:44.661Z,89.75
2022-10-26T16:51:20.770Z,89.96
2022-10-26T16:56:52.385Z,90.2
2022-10-26T17:02:24.377Z,90.8
2022-10-26T17:07:55.800Z,90.76
2022-10-26T17:13:27.594Z,91.52
2022-10-26T17:18:59.282Z,91.9
2022-10-26T17:24:31.510Z,92.13
2022-10-26T17:30:02.818Z,91.98
2022-10-26T17:35:34.513Z,92.04
2022-10-26T17:41:06.365Z,91.61
2022-10-26T17:46:38.149Z,91.61
2022-10-26T17:52:14.125Z,91.49
2022-10-26T17:57:45.982Z,90.94
2022-10-26T18:03:17.553Z,90.55
2022-10-26T18:08:49.223Z,90.61
2022-10-26T18:14:20.946Z,90.24
2022-10-26T18:19:52.934Z,90.73
2022-10-26T18:25:24.620Z,90.48
2022-10-26T18:30:56.187Z,90.55
2022-10-26T18:36:27.984Z,91.28
2022-10-26T18:41:59.554Z,91.7
2022-10-26T18:47:31.350Z,91.98
2022-10-26T18:53:09.623Z,91.87
2022-10-26T18:58:41.226Z,92.82
2022-10-26T19:04:13.079Z,94.25
2022-10-26T19:09:44.874Z,94.85
2022-10-26T19:15:16.483Z,94.34
2022-10-26T19:20:48.212Z,95.11
2022-10-26T19:26:19.934Z,94.87
2022-10-26T19:31:52.170Z,95.23
2022-10-26T19:37:28.450Z,95.93
2022-10-26T19:42:55.351Z,96.7
2022-10-26T19:48:27.706Z,96.37
2022-10-26T19:54:05.892Z,96.73
2022-10-26T19:59:37.349Z,97.05
2022-10-26T20:05:09.153Z,97.61
2022-10-26T20:10:40.898Z,97.61
2022-10-26T20:16:13.153Z,97.89
2022-10-26T20:21:45.802Z,97.38
2022-10-26T20:27:16.955Z,97.3
2022-10-26T20:32:48.626Z,97.81
2022-10-26T20:38:20.343Z,99.7
2022-10-26T20:43:57.877Z,97.98
2022-10-26T20:49:24.154Z,97.97
2022-10-26T20:54:59.830Z,98.46
2022-10-26T21:00:31.810Z,98.97
2022-10-26T21:06:03.725Z,98.91
2022-10-26T21:11:35.229Z,99.27
2022-10-26T21:17:06.967Z,99.31
2022-10-26T21:22:38.658Z,99.69
2022-10-26T21:28:10.339Z,100.0
2022-10-26T21:33:42.031Z,100.0
2022-10-26T21:39:13.918Z,100.0
2022-10-26T21:44:45.428Z,100.0
2022-10-26T21:50:17.130Z,99.83
2022-10-26T21:55:53.309Z,100.0
2022-10-26T22:01:25.262Z,100.0
2022-10-26T22:06:56.841Z,100.0
2022-10-26T22:12:28.429Z,100.0
2022-10-26T22:18:00.246Z,100.0
2022-10-26T22:23:31.948Z,100.0
2022-10-26T22:29:03.762Z,100.0
2022-10-26T22:34:35.519Z,100.0
2022-10-26T22:40:07.227Z,100.0
2022-10-26T22:45:38.826Z,100.0
2022-10-26T22:51:10.687Z,100.0
2022-10-26T22:56:49.407Z,100.0
2022-10-26T23:02:20.583Z,100.0
2022-10-26T23:07:52.953Z,100.0
2022-10-26T23:13:23.999Z,100.0
2022-10-26T23:18:55.762Z,100.0
2022-10-26T23:24:27.351Z,100.0
2022-10-26T23:29:59.226Z,100.0
2022-10-26T23:35:30.915Z,100.0
2022-10-26T23:41:02.523Z,100.0
2022-10-26T23:46:34.386Z,100.0
2022-10-26T23:52:06.155Z,100.0
2022-10-26T23:57:42.034Z,100.0
